Time;durP1;ratioP1;P1;durP2;ratioP2;P2;SDS_P1;SDS_P2;PMS_P1;PMS_P2;Temp;Humidity;BMP_temperature;BMP_pressure;BME280_temperature;BME280_humidity;BME280_pressure;Samples;Min_cycle;Max_cycle;Signal;HPM_P1;HPM_P2
2022/12/09 00:01:36;;;;;;;54.17;42.70;;;8.40;94.30;;;;;;5013359;28;20064;-59
2022/12/09 00:04:02;;;;;;;58.47;42.45;;;8.40;95.20;;;;;;5013789;28;20468;-60
2022/12/09 00:06:29;;;;;;;49.63;39.80;;;8.30;96.30;;;;;;5025610;28;20030;-60
2022/12/09 00:08:56;;;;;;;52.15;42.50;;;8.30;99.90;;;;;;5033336;28;20092;-59
2022/12/09 00:11:23;;;;;;;59.23;45.77;;;8.30;99.90;;;;;;5020631;28;20479;-60
2022/12/09 00:13:54;;;;;;;59.23;44.10;;;8.30;97.50;;;;;;5024848;28;20045;-60
2022/12/09 00:16:20;;;;;;;55.43;44.23;;;8.40;92.20;;;;;;5033017;28;20025;-60
2022/12/09 00:18:46;;;;;;;60.17;44.60;;;8.40;50.90;;;;;;5033387;28;20426;-61
2022/12/09 00:21:24;;;;;;;56.63;43.63;;;8.40;19.80;;;;;;5027624;28;20026;-60
2022/12/09 00:23:51;;;;;;;61.10;45.30;;;8.40;14.00;;;;;;5033103;28;20049;-59
2022/12/09 00:26:17;;;;;;;56.90;44.10;;;8.40;1.00;;;;;;5033028;28;20452;-60
2022/12/09 00:28:44;;;;;;;58.13;45.77;;;8.50;1.00;;;;;;5032718;28;20021;-60
2022/12/09 00:31:14;;;;;;;57.07;44.23;;;8.50;1.00;;;;;;5027331;28;20089;-59
2022/12/09 00:33:40;;;;;;;55.97;42.33;;;8.50;1.00;;;;;;5018657;28;20083;-60
2022/12/09 00:36:18;;;;;;;50.80;38.23;;;8.50;1.00;;;;;;5031580;28;20372;-60
2022/12/09 00:38:44;;;;;;;50.13;41.90;;;8.30;1.00;;;;;;5032473;28;20487;-60
2022/12/09 00:41:10;;;;;;;51.83;41.90;;;8.30;1.00;;;;;;5032241;28;20025;-61
2022/12/09 00:43:36;;;;;;;54.50;43.27;;;8.40;1.00;;;;;;5021673;28;20038;-60
2022/12/09 00:46:01;;;;;;;54.92;43.10;;;8.40;1.00;;;;;;5033016;28;20084;-60
2022/12/09 00:48:27;;;;;;;53.70;44.73;;;8.50;1.00;;;;;;5032558;28;20022;-60
2022/12/09 00:50:53;;;;;;;54.33;40.38;;;8.60;1.00;;;;;;5015027;28;20018;-60
2022/12/09 00:53:19;;;;;;;51.45;38.78;;;8.50;1.00;;;;;;5024519;28;20049;-59
2022/12/09 00:55:45;;;;;;;49.30;38.17;;;8.50;1.00;;;;;;5032325;28;20097;-59
2022/12/09 00:58:11;;;;;;;52.53;40.17;;;8.50;1.00;;;;;;5019610;28;20042;-60
2022/12/09 01:00:37;;;;;;;52.13;39.87;;;8.50;1.00;;;;;;5028585;28;20029;-60
2022/12/09 01:03:03;;;;;;;54.43;41.73;;;8.50;1.00;;;;;;5032437;28;20029;-60
2022/12/09 01:05:29;;;;;;;57.60;42.27;;;8.50;1.00;;;;;;5017842;28;20049;-60
2022/12/09 01:07:54;;;;;;;52.13;41.37;;;8.50;1.00;;;;;;5017929;28;20029;-60
2022/12/09 01:10:20;;;;;;;52.73;41.70;;;8.50;1.00;;;;;;5021451;28;20037;-60
2022/12/09 01:12:46;;;;;;;55.13;40.87;;;8.50;1.00;;;;;;5026409;28;20527;-60
2022/12/09 01:15:12;;;;;;;52.83;41.60;;;8.50;1.00;;;;;;5021785;28;20033;-60
2022/12/09 01:17:38;;;;;;;53.25;41.60;;;8.50;1.00;;;;;;5031962;28;20029;-60
2022/12/09 01:20:06;;;;;;;55.65;42.83;;;8.50;1.00;;;;;;5027714;28;20495;-60
2022/12/09 01:22:32;;;;;;;53.83;42.53;;;8.50;1.00;;;;;;5011393;28;20121;-60
2022/12/09 01:24:57;;;;;;;52.30;41.40;;;8.50;1.00;;;;;;5031678;28;20109;-61
2022/12/09 01:27:23;;;;;;;54.07;42.03;;;8.50;1.00;;;;;;5031843;28;20112;-59
2022/12/09 01:29:49;;;;;;;52.57;38.33;;;8.50;1.00;;;;;;5031683;28;20116;-60
2022/12/09 01:32:14;;;;;;;50.33;38.63;;;8.50;1.00;;;;;;5031996;28;20041;-60
2022/12/09 01:34:40;;;;;;;54.30;40.63;;;8.60;1.00;;;;;;5030933;28;20029;-60
2022/12/09 01:37:05;;;;;;;56.33;42.10;;;8.60;1.00;;;;;;5031814;28;20515;-60
2022/12/09 01:39:31;;;;;;;54.60;41.23;;;8.60;1.00;;;;;;5030491;28;20040;-59
2022/12/09 01:41:59;;;;;;;56.47;40.57;;;8.60;1.00;;;;;;5027261;28;20402;-59
2022/12/09 01:44:26;;;;;;;62.83;44.93;;;8.50;1.00;;;;;;5022647;28;20361;-59
2022/12/09 01:46:57;;;;;;;55.10;40.57;;;8.60;1.00;;;;;;5029544;28;20033;-60
2022/12/09 01:49:27;;;;;;;55.70;41.47;;;8.60;1.00;;;;;;5021267;28;20034;-60
2022/12/09 01:52:04;;;;;;;51.10;39.83;;;8.50;1.00;;;;;;5031820;28;20046;-60
2022/12/09 01:54:32;;;;;;;56.63;43.33;;;8.50;1.00;;;;;;5031269;28;20065;-60
2022/12/09 01:56:58;;;;;;;55.80;43.57;;;8.60;1.00;;;;;;5031169;28;20075;-60
2022/12/09 01:59:25;;;;;;;57.07;43.03;;;8.60;1.00;;;;;;5018769;28;20108;-60
2022/12/09 02:01:56;;;;;;;52.73;41.50;;;8.70;1.00;;;;;;5031576;28;20044;-60
2022/12/09 02:04:23;;;;;;;52.40;38.77;;;8.70;1.00;;;;;;5022179;28;20459;-60
2022/12/09 02:06:49;;;;;;;53.47;39.27;;;8.60;1.00;;;;;;5015305;28;20034;-60
2022/12/09 02:09:14;;;;;;;56.23;42.27;;;8.60;1.00;;;;;;5027836;28;20106;-60
2022/12/09 02:11:52;;;;;;;52.17;39.27;;;8.70;1.00;;;;;;5029374;28;20032;-60
2022/12/09 02:14:26;;;;;;;57.53;41.33;;;8.70;1.00;;;;;;5020601;28;20541;-59
2022/12/09 02:17:04;;;;;;;41.40;32.90;;;8.70;1.00;;;;;;5027667;28;20129;-60
2022/12/09 02:20:00;;;;;;;48.57;39.57;;;8.70;1.00;;;;;;5031259;28;20480;-60
2022/12/09 02:22:51;;;;;;;52.90;40.50;;;8.70;1.00;;;;;;5031470;28;20028;-60
2022/12/09 02:25:23;;;;;;;54.20;40.63;;;8.70;1.00;;;;;;5031330;28;20092;-59
2022/12/09 02:27:55;;;;;;;49.20;38.60;;;8.70;1.00;;;;;;5019964;28;20029;-60
2022/12/09 02:30:32;;;;;;;52.07;38.77;;;8.70;1.00;;;;;;5025569;28;20487;-59
2022/12/09 02:33:18;;;;;;;55.40;40.03;;;8.70;1.00;;;;;;5030005;28;20029;-59
2022/12/09 02:35:55;;;;;;;53.17;39.23;;;8.80;1.00;;;;;;5029741;28;20029;-59
2022/12/09 02:38:30;;;;;;;53.60;41.47;;;8.70;1.00;;;;;;5029810;28;20044;-59
2022/12/09 02:41:05;;;;;;;57.13;39.28;;;8.70;1.00;;;;;;5029936;28;20112;-59
2022/12/09 02:43:35;;;;;;;48.40;35.50;;;8.70;1.00;;;;;;5021965;28;20041;-59
2022/12/09 02:46:03;;;;;;;50.60;35.07;;;8.50;1.00;;;;;;5029799;28;20014;-60
2022/12/09 02:48:34;;;;;;;49.67;34.87;;;8.60;1.00;;;;;;5029011;28;20636;-59
2022/12/09 02:51:06;;;;;;;42.67;32.07;;;8.60;1.00;;;;;;5029257;28;20052;-59
2022/12/09 02:53:34;;;;;;;40.10;30.53;;;8.60;1.00;;;;;;5028492;28;20072;-60
2022/12/09 02:56:01;;;;;;;42.07;30.07;;;8.50;1.00;;;;;;5019964;28;20427;-60
2022/12/09 02:58:26;;;;;;;45.23;32.77;;;8.50;1.00;;;;;;5020293;28;20079;-60
2022/12/09 03:00:55;;;;;;;46.50;33.90;;;8.60;1.00;;;;;;5029496;28;20124;-60
2022/12/09 03:03:21;;;;;;;52.70;36.80;;;8.50;1.00;;;;;;5031180;28;20025;-59
2022/12/09 03:06:11;;;;;;;55.73;37.70;;;8.60;1.00;;;;;;5031417;28;20038;-60
2022/12/09 03:08:58;;;;;;;49.50;37.83;;;8.60;1.00;;;;;;5009034;28;20041;-59
2022/12/09 03:11:25;;;;;;;51.03;37.07;;;8.60;1.00;;;;;;5019538;28;20027;-60
2022/12/09 03:14:13;;;;;;;54.63;37.07;;;8.60;1.00;;;;;;5034569;28;20422;-60
2022/12/09 03:16:44;;;;;;;50.33;37.20;;;8.60;1.00;;;;;;5034340;28;20032;-60
2022/12/09 03:19:29;;;;;;;53.63;37.30;;;8.70;1.00;;;;;;5034203;28;20650;-59
2022/12/09 03:22:04;;;;;;;54.40;38.70;;;8.70;1.00;;;;;;5020036;28;20498;-59
2022/12/09 03:24:38;;;;;;;53.63;37.27;;;8.70;1.00;;;;;;5034364;28;20029;-59
2022/12/09 03:27:07;;;;;;;63.23;39.57;;;8.60;1.00;;;;;;5034160;28;20184;-59
2022/12/09 03:29:37;;;;;;;53.10;34.97;;;8.70;1.00;;;;;;5033789;28;20536;-60
2022/12/09 03:32:03;;;;;;;54.13;38.00;;;8.60;1.00;;;;;;5024843;28;20508;-59
2022/12/09 03:34:36;;;;;;;61.67;40.17;;;8.60;1.00;;;;;;5033932;28;20055;-59
2022/12/09 03:37:03;;;;;;;53.97;34.00;;;8.60;1.00;;;;;;5033087;28;20033;-60
2022/12/09 03:39:34;;;;;;;61.37;40.00;;;8.60;1.00;;;;;;5033860;28;20040;-59
2022/12/09 03:42:06;;;;;;;52.63;36.10;;;8.50;1.00;;;;;;5022890;28;20025;-59
2022/12/09 03:44:41;;;;;;;64.10;40.83;;;8.50;1.00;;;;;;5026885;28;20105;-60
2022/12/09 03:47:08;;;;;;;58.53;38.43;;;8.60;1.00;;;;;;5033166;28;20121;-59
2022/12/09 03:49:35;;;;;;;52.87;37.47;;;8.70;1.00;;;;;;5013098;28;20108;-60
2022/12/09 03:52:19;;;;;;;53.63;36.47;;;8.60;1.00;;;;;;5017179;28;20044;-60
2022/12/09 03:54:48;;;;;;;50.30;35.80;;;8.60;1.00;;;;;;4975261;28;20046;-59
2022/12/09 03:57:16;;;;;;;55.97;36.30;;;8.60;1.00;;;;;;4982061;28;20025;-60
2022/12/09 03:59:45;;;;;;;71.00;38.87;;;8.50;1.00;;;;;;4987796;28;20022;-59
2022/12/09 04:02:12;;;;;;;51.27;36.70;;;8.50;1.00;;;;;;4992965;28;20385;-60
2022/12/09 04:04:39;;;;;;;77.73;43.73;;;8.50;1.00;;;;;;4994179;28;20018;-59
2022/12/09 04:07:06;;;;;;;88.93;45.03;;;8.50;1.00;;;;;;4980022;28;20022;-59
2022/12/09 04:09:32;;;;;;;83.00;44.03;;;8.60;1.00;;;;;;4994058;28;20038;-59
2022/12/09 04:11:57;;;;;;;68.87;41.90;;;8.60;1.00;;;;;;4994155;28;20065;-59
2022/12/09 04:14:23;;;;;;;47.43;35.00;;;8.60;1.00;;;;;;4994191;28;20396;-60
2022/12/09 04:16:48;;;;;;;54.73;36.90;;;8.60;1.00;;;;;;4993732;28;20098;-60
2022/12/09 04:19:14;;;;;;;149.67;66.47;;;8.60;1.00;;;;;;4992428;28;20113;-60
2022/12/09 04:21:40;;;;;;;146.10;66.97;;;8.60;1.00;;;;;;4982512;28;20019;-60
2022/12/09 04:24:06;;;;;;;66.47;38.97;;;8.60;1.00;;;;;;4979600;28;20440;-60
2022/12/09 04:26:32;;;;;;;46.23;32.87;;;8.70;1.00;;;;;;4971683;28;20027;-60
2022/12/09 04:28:57;;;;;;;47.80;31.33;;;8.60;1.00;;;;;;4971053;28;20452;-59
2022/12/09 04:31:23;;;;;;;71.93;40.83;;;8.60;1.00;;;;;;4972366;28;20493;-59
2022/12/09 04:33:49;;;;;;;55.33;35.97;;;8.60;1.00;;;;;;4973252;28;20039;-59
2022/12/09 04:36:16;;;;;;;47.80;33.57;;;8.60;1.00;;;;;;4977360;28;20050;-59
2022/12/09 04:38:42;;;;;;;39.73;28.10;;;8.70;1.00;;;;;;4984429;28;20540;-60
2022/12/09 04:41:09;;;;;;;35.87;26.97;;;8.70;1.00;;;;;;4987900;28;20026;-59
2022/12/09 04:43:34;;;;;;;40.00;28.27;;;8.50;1.00;;;;;;4973881;28;20038;-59
2022/12/09 04:46:02;;;;;;;47.43;32.13;;;8.50;1.00;;;;;;4991032;28;20098;-59
2022/12/09 04:48:29;;;;;;;38.93;26.73;;;8.50;1.00;;;;;;4993239;28;20142;-59
2022/12/09 04:50:54;;;;;;;55.53;35.13;;;8.50;1.00;;;;;;4979259;28;20023;-60
2022/12/09 04:53:20;;;;;;;48.77;32.63;;;8.40;1.00;;;;;;5010959;28;20057;-60
2022/12/09 04:55:46;;;;;;;42.43;30.57;;;8.40;1.00;;;;;;5032445;28;20091;-59
2022/12/09 04:58:11;;;;;;;58.10;37.03;;;8.40;1.00;;;;;;5030951;28;20475;-59
2022/12/09 05:00:37;;;;;;;45.27;31.40;;;8.40;1.00;;;;;;5018343;28;20029;-59
2022/12/09 05:03:03;;;;;;;39.30;27.73;;;8.30;1.00;;;;;;5032504;28;20032;-59
2022/12/09 05:05:29;;;;;;;42.70;28.23;;;8.30;1.00;;;;;;5024465;28;20034;-59
2022/12/09 05:07:55;;;;;;;46.27;31.33;;;8.30;1.00;;;;;;5010633;28;20191;-59
2022/12/09 05:10:21;;;;;;;34.60;26.03;;;8.40;1.00;;;;;;5008282;28;20033;-59
2022/12/09 05:12:47;;;;;;;32.80;24.93;;;8.20;1.00;;;;;;5032383;28;20482;-59
2022/12/09 05:15:12;;;;;;;35.60;25.87;;;8.30;1.00;;;;;;5031940;28;20029;-59
2022/12/09 05:17:38;;;;;;;37.80;27.57;;;8.30;1.00;;;;;;5032126;28;20065;-59
2022/12/09 05:20:04;;;;;;;31.20;24.87;;;8.30;1.00;;;;;;5028913;28;20032;-59
2022/12/09 05:22:30;;;;;;;35.20;26.13;;;8.30;1.00;;;;;;5031901;28;20053;-59
2022/12/09 05:24:55;;;;;;;36.50;24.73;;;8.30;1.00;;;;;;5031892;28;20063;-59
2022/12/09 05:27:21;;;;;;;34.03;24.57;;;8.20;1.00;;;;;;5031505;28;20026;-59
2022/12/09 05:29:47;;;;;;;34.80;26.13;;;8.30;1.00;;;;;;5032156;28;20076;-59
2022/12/09 05:32:13;;;;;;;32.40;24.03;;;8.30;1.00;;;;;;5031980;28;20061;-59
2022/12/09 05:34:38;;;;;;;47.10;33.03;;;8.20;1.00;;;;;;5026808;28;20088;-59
2022/12/09 05:37:04;;;;;;;33.13;25.07;;;8.30;1.00;;;;;;5029547;28;20049;-59
2022/12/09 05:39:29;;;;;;;29.73;23.23;;;8.20;1.00;;;;;;5031775;28;20029;-60
2022/12/09 05:41:55;;;;;;;30.10;23.33;;;8.20;1.00;;;;;;5017681;28;20030;-59
2022/12/09 05:44:21;;;;;;;26.50;21.30;;;8.30;1.00;;;;;;5031675;28;20021;-59
2022/12/09 05:46:47;;;;;;;31.73;23.37;;;8.20;1.00;;;;;;5031757;28;20038;-60
2022/12/09 05:49:12;;;;;;;32.10;23.87;;;8.30;1.00;;;;;;5028035;28;20034;-60
2022/12/09 05:51:38;;;;;;;26.73;20.90;;;8.30;1.00;;;;;;5022079;28;20033;-60
2022/12/09 05:54:04;;;;;;;27.83;21.27;;;8.30;1.00;;;;;;5031316;28;20049;-60
2022/12/09 05:56:31;;;;;;;30.77;22.10;;;8.30;1.00;;;;;;5026213;28;20112;-60
2022/12/09 05:58:57;;;;;;;30.57;22.83;;;8.20;1.00;;;;;;5031602;28;20083;-60
2022/12/09 06:04:45;;;;;;;27.67;21.33;;;8.40;1.00;;;;;;5019629;28;20040;-60
2022/12/09 06:07:10;;;;;;;29.67;22.67;;;8.40;1.00;;;;;;5031511;28;20455;-61
2022/12/09 06:09:36;;;;;;;27.83;21.07;;;8.40;1.00;;;;;;5030077;28;20069;-60
2022/12/09 06:12:02;;;;;;;25.67;19.23;;;8.40;1.00;;;;;;5031424;28;20053;-60
2022/12/09 06:14:28;;;;;;;25.83;19.40;;;8.30;1.00;;;;;;5028522;28;20045;-60
2022/12/09 06:16:53;;;;;;;19.27;16.23;;;8.40;1.00;;;;;;5031459;28;20030;-59
2022/12/09 06:19:19;;;;;;;21.10;16.63;;;8.40;1.00;;;;;;5029813;28;20034;-60
2022/12/09 06:21:44;;;;;;;25.47;18.23;;;8.30;1.00;;;;;;5031163;28;20101;-60
2022/12/09 06:24:10;;;;;;;19.50;14.43;;;8.30;1.00;;;;;;5031021;28;20053;-60
2022/12/09 06:26:36;;;;;;;17.57;13.60;;;8.30;1.00;;;;;;5016541;28;20029;-60
2022/12/09 06:29:02;;;;;;;17.53;13.37;;;8.30;1.00;;;;;;5031368;28;20033;-60
2022/12/09 06:31:28;;;;;;;17.47;13.30;;;8.30;1.00;;;;;;5030125;28;20022;-60
2022/12/09 06:33:54;;;;;;;14.73;11.73;;;8.20;1.00;;;;;;5031121;28;20041;-60
2022/12/09 06:36:19;;;;;;;8.97;7.63;;;8.20;1.00;;;;;;5017927;28;20083;-61
2022/12/09 06:38:45;;;;;;;7.23;6.10;;;8.10;1.00;;;;;;5031197;28;20108;-60
2022/12/09 06:41:13;;;;;;;5.70;4.97;;;8.00;1.00;;;;;;5025862;28;20495;-60
2022/12/09 06:43:39;;;;;;;13.03;10.73;;;8.00;1.00;;;;;;5029332;28;20049;-60
2022/12/09 06:46:17;;;;;;;16.33;12.97;;;7.90;1.00;;;;;;5033317;28;20071;-60
2022/12/09 06:48:43;;;;;;;17.67;13.07;;;7.70;99.90;;;;;;5021023;28;20475;-60
2022/12/09 06:51:09;;;;;;;16.23;13.63;;;7.80;99.90;;;;;;5034764;28;20387;-60
2022/12/09 06:53:34;;;;;;;17.20;12.93;;;7.90;99.90;;;;;;5034539;28;20050;-60
2022/12/09 06:56:04;;;;;;;18.13;14.33;;;7.80;99.90;;;;;;5030262;28;20026;-60
2022/12/09 06:58:30;;;;;;;24.47;17.87;;;7.80;99.90;;;;;;5026007;28;20088;-60
2022/12/09 07:01:07;;;;;;;24.23;18.57;;;7.80;99.90;;;;;;5033549;28;20035;-60
2022/12/09 07:03:33;;;;;;;28.07;19.10;;;7.50;99.90;;;;;;5034590;28;20109;-60
2022/12/09 07:05:59;;;;;;;25.93;17.53;;;7.40;99.90;;;;;;5034751;28;20022;-59
2022/12/09 07:08:25;;;;;;;25.90;18.70;;;7.40;99.90;;;;;;5034738;28;20041;-59
2022/12/09 07:10:51;;;;;;;24.43;17.40;;;7.40;99.90;;;;;;5028256;28;20034;-59
2022/12/09 07:13:16;;;;;;;24.10;17.53;;;7.10;99.90;;;;;;5021199;28;20037;-59
2022/12/09 07:15:42;;;;;;;23.00;15.80;;;7.30;99.90;;;;;;5034657;28;20029;-60
2022/12/09 07:18:08;;;;;;;25.73;17.77;;;7.50;99.90;;;;;;5034313;28;20522;-59
2022/12/09 07:20:33;;;;;;;23.83;16.73;;;7.60;99.90;;;;;;5034043;28;20025;-60
2022/12/09 07:22:59;;;;;;;18.47;13.10;;;7.50;99.90;;;;;;5030053;28;20459;-60
2022/12/09 07:25:24;;;;;;;19.93;13.93;;;7.50;99.90;;;;;;5022621;28;20018;-59
2022/12/09 07:27:50;;;;;;;16.27;12.43;;;7.60;99.90;;;;;;5022334;28;20033;-60
2022/12/09 07:30:16;;;;;;;19.43;14.00;;;7.50;99.90;;;;;;5034142;28;20060;-59
2022/12/09 07:32:41;;;;;;;22.80;15.30;;;7.40;99.90;;;;;;5033962;28;20029;-60
2022/12/09 07:35:07;;;;;;;20.10;15.70;;;7.60;62.00;;;;;;5020697;28;20037;-60
2022/12/09 07:37:33;;;;;;;21.40;15.10;;;7.60;58.90;;;;;;5032673;28;20045;-60
2022/12/09 07:39:59;;;;;;;22.83;16.03;;;7.50;55.10;;;;;;5033946;28;20119;-60
2022/12/09 07:42:24;;;;;;;20.00;15.67;;;7.50;50.40;;;;;;5033674;28;20016;-60
2022/12/09 07:44:50;;;;;;;17.77;11.90;;;7.50;45.90;;;;;;5032539;28;20043;-60
2022/12/09 07:47:15;;;;;;;11.80;9.77;;;7.30;43.30;;;;;;5033794;28;20113;-60
2022/12/09 07:49:41;;;;;;;16.93;12.30;;;7.10;37.70;;;;;;5033771;28;20495;-60
2022/12/09 07:52:28;;;;;;;14.00;10.57;;;6.70;99.90;;;;;;5033258;28;20033;-60
2022/12/09 07:54:58;;;;;;;14.87;10.60;;;6.80;99.90;;;;;;4964869;28;20061;-60
2022/12/09 07:57:23;;;;;;;12.80;9.87;;;6.90;99.90;;;;;;4986930;28;20018;-60
2022/12/09 07:59:49;;;;;;;15.60;11.07;;;6.80;99.90;;;;;;4993194;28;20041;-60
2022/12/09 08:02:14;;;;;;;15.73;12.07;;;6.80;99.90;;;;;;4989939;28;20030;-61
2022/12/09 08:04:40;;;;;;;16.17;11.67;;;7.30;99.90;;;;;;4976259;28;20058;-60
2022/12/09 08:07:05;;;;;;;14.73;11.07;;;7.40;99.90;;;;;;4994210;28;20034;-59
2022/12/09 08:09:31;;;;;;;11.07;8.80;;;7.50;99.90;;;;;;4994139;28;20128;-59
2022/12/09 08:11:57;;;;;;;13.90;11.13;;;7.30;99.90;;;;;;4994071;28;20049;-59
2022/12/09 08:14:22;;;;;;;19.70;12.37;;;7.40;99.90;;;;;;4993747;28;20038;-60
2022/12/09 08:17:03;;;;;;;15.67;10.27;;;7.10;99.90;;;;;;4980567;28;20109;-60
2022/12/09 08:19:29;;;;;;;16.63;11.87;;;7.40;99.90;;;;;;4993932;28;20074;-60
2022/12/09 08:21:54;;;;;;;16.57;11.03;;;7.50;99.90;;;;;;4993992;28;20448;-60
2022/12/09 08:24:20;;;;;;;14.70;11.57;;;7.60;99.90;;;;;;4993736;28;20514;-60
2022/12/09 08:26:49;;;;;;;20.03;13.67;;;7.70;99.90;;;;;;4993712;28;20041;-60
2022/12/09 08:29:15;;;;;;;17.53;12.80;;;7.80;99.90;;;;;;4993733;28;20026;-60
2022/12/09 08:31:41;;;;;;;16.90;12.83;;;7.60;99.90;;;;;;4989481;28;20097;-60
2022/12/09 08:34:07;;;;;;;24.87;14.30;;;7.40;99.90;;;;;;4993585;28;20074;-60
2022/12/09 08:36:33;;;;;;;21.00;14.13;;;7.40;99.90;;;;;;4993848;28;20471;-60
2022/12/09 08:39:00;;;;;;;18.87;14.53;;;7.50;99.90;;;;;;4991838;28;20084;-61
2022/12/09 08:41:34;;;;;;;21.03;15.30;;;7.50;99.90;;;;;;4992290;28;20113;-60
2022/12/09 08:44:04;;;;;;;20.40;15.70;;;7.50;99.90;;;;;;4980855;28;20465;-61
2022/12/09 08:46:31;;;;;;;19.47;14.57;;;7.60;99.90;;;;;;4993440;28;20022;-60
2022/12/09 08:48:56;;;;;;;24.30;16.87;;;7.50;99.90;;;;;;4993332;28;20038;-60
2022/12/09 08:51:22;;;;;;;22.20;16.10;;;7.60;99.90;;;;;;4993536;28;20022;-60
2022/12/09 08:53:48;;;;;;;15.83;12.97;;;7.40;99.90;;;;;;5002839;28;20132;-60
2022/12/09 08:56:14;;;;;;;16.67;12.10;;;7.50;99.90;;;;;;5032457;28;20045;-60
2022/12/09 08:58:41;;;;;;;16.53;12.27;;;7.50;99.90;;;;;;5012048;28;20475;-60
2022/12/09 09:01:12;;;;;;;16.90;13.63;;;7.20;99.90;;;;;;5013452;28;20034;-60
2022/12/09 09:03:38;;;;;;;18.73;14.77;;;7.10;99.90;;;;;;5009691;28;20030;-60
2022/12/09 09:06:06;;;;;;;19.93;15.43;;;7.30;99.90;;;;;;5015770;28;20392;-60
2022/12/09 09:08:32;;;;;;;17.50;15.57;;;7.50;99.90;;;;;;5018562;28;20033;-60
2022/12/09 09:10:58;;;;;;;19.90;15.10;;;7.40;99.90;;;;;;5032404;28;20444;-60
2022/12/09 09:13:24;;;;;;;20.23;15.13;;;7.20;99.90;;;;;;5019087;28;20042;-60
2022/12/09 09:15:50;;;;;;;21.47;16.33;;;7.30;99.90;;;;;;5017703;28;20121;-60
2022/12/09 09:18:15;;;;;;;23.03;16.80;;;7.40;99.90;;;;;;5026639;28;20142;-60
2022/12/09 09:20:51;;;;;;;22.70;17.73;;;7.50;99.90;;;;;;5025608;28;20026;-60
2022/12/09 09:23:16;;;;;;;18.63;15.60;;;7.50;99.90;;;;;;5012326;28;20030;-60
2022/12/09 09:25:42;;;;;;;25.17;18.00;;;7.40;99.90;;;;;;5025238;28;20447;-60
2022/12/09 09:28:09;;;;;;;22.80;17.80;;;7.20;99.90;;;;;;5018258;28;20124;-60
2022/12/09 09:30:36;;;;;;;28.80;20.10;;;7.30;99.90;;;;;;5031827;28;20034;-60
2022/12/09 09:33:02;;;;;;;26.23;19.13;;;7.50;99.90;;;;;;5026595;28;20064;-60
2022/12/09 09:35:28;;;;;;;25.27;18.20;;;7.60;99.90;;;;;;5023487;28;20483;-60
2022/12/09 09:37:53;;;;;;;24.23;17.27;;;7.60;99.90;;;;;;5031789;28;20371;-60
2022/12/09 09:40:20;;;;;;;26.20;18.53;;;7.40;99.90;;;;;;5030630;28;20075;-60
2022/12/09 09:42:51;;;;;;;24.33;19.07;;;7.50;99.90;;;;;;5030441;28;20373;-59
2022/12/09 09:45:19;;;;;;;24.30;17.70;;;7.50;99.90;;;;;;5031960;28;20075;-60
2022/12/09 09:47:58;;;;;;;26.13;19.50;;;7.70;99.90;;;;;;5026101;28;20029;-60
2022/12/09 09:50:50;;;;;;;28.53;21.20;;;7.70;99.90;;;;;;5031718;28;20495;-60
2022/12/09 09:53:29;;;;;;;26.50;20.47;;;7.50;99.90;;;;;;5031588;28;20080;-60
2022/12/09 09:56:04;;;;;;;28.80;21.07;;;7.60;99.90;;;;;;5031728;28;20521;-60
2022/12/09 09:58:35;;;;;;;26.98;20.23;;;7.60;99.90;;;;;;5031909;28;20049;-59
2022/12/09 10:01:06;;;;;;;26.97;19.63;;;7.60;99.90;;;;;;5031945;28;20167;-60
2022/12/09 10:03:51;;;;;;;30.73;22.50;;;7.50;99.90;;;;;;5022813;28;20052;-59
2022/12/09 10:06:39;;;;;;;27.17;22.23;;;7.50;99.90;;;;;;5029797;28;20467;-59
2022/12/09 10:09:35;;;;;;;28.73;21.23;;;7.50;99.90;;;;;;5031913;28;20210;-59
2022/12/09 10:12:04;;;;;;;31.60;22.50;;;7.30;99.90;;;;;;5017500;28;20049;-60
2022/12/09 10:14:41;;;;;;;28.47;22.60;;;7.50;99.90;;;;;;5029021;28;20034;-59
2022/12/09 10:17:28;;;;;;;32.60;23.20;;;7.70;99.90;;;;;;5033901;28;20078;-59
2022/12/09 10:20:10;;;;;;;33.00;23.77;;;7.80;99.90;;;;;;5035599;28;20021;-60
2022/12/09 10:22:53;;;;;;;31.13;22.47;;;7.80;99.90;;;;;;5010289;28;20022;-60
2022/12/09 10:25:32;;;;;;;28.90;20.50;;;7.60;99.90;;;;;;5029607;28;20037;-61
2022/12/09 10:28:01;;;;;;;26.77;21.57;;;7.40;99.90;;;;;;5035575;28;20037;-61
2022/12/09 10:30:26;;;;;;;33.20;22.23;;;7.70;99.90;;;;;;5035343;28;20041;-61
2022/12/09 10:32:52;;;;;;;29.27;21.90;;;7.60;99.90;;;;;;5035292;28;20025;-60
2022/12/09 10:35:27;;;;;;;28.03;20.97;;;7.60;99.90;;;;;;5032302;28;20613;-61
2022/12/09 10:38:03;;;;;;;30.38;21.00;;;7.70;99.90;;;;;;5010036;28;20017;-61
2022/12/09 10:40:44;;;;;;;24.23;18.50;;;7.60;99.90;;;;;;5027454;28;20022;-61
2022/12/09 10:43:39;;;;;;;22.23;17.43;;;7.30;99.90;;;;;;5035242;28;20053;-61
2022/12/09 10:46:18;;;;;;;19.98;16.48;;;7.20;99.90;;;;;;5031885;28;20065;-60
2022/12/09 10:48:47;;;;;;;24.10;18.10;;;7.30;99.90;;;;;;5015238;28;20030;-60
2022/12/09 10:51:33;;;;;;;176.03;117.83;;;7.10;99.90;;;;;;5014378;28;20036;-60
2022/12/09 10:54:02;;;;;;;45.50;32.83;;;7.20;99.90;;;;;;5009269;28;20092;-60
2022/12/09 10:56:36;;;;;;;20.87;15.90;;;7.20;99.90;;;;;;5034882;28;20332;-61
2022/12/09 10:59:22;;;;;;;25.10;18.90;;;7.40;99.90;;;;;;5030078;28;20030;-60
2022/12/09 11:02:08;;;;;;;19.07;15.60;;;7.50;99.90;;;;;;5026345;28;20056;-61
2022/12/09 11:04:40;;;;;;;20.43;15.50;;;7.60;99.90;;;;;;5034747;28;20068;-61
2022/12/09 11:07:06;;;;;;;17.40;15.10;;;7.70;99.90;;;;;;5030172;28;20467;-61
2022/12/09 11:09:34;;;;;;;18.13;15.63;;;7.70;99.90;;;;;;5034738;28;20101;-61
2022/12/09 11:12:02;;;;;;;18.97;15.63;;;7.60;99.90;;;;;;5020940;28;20022;-61
2022/12/09 11:14:35;;;;;;;18.67;15.53;;;7.60;99.90;;;;;;5022894;28;20069;-61
2022/12/09 11:17:19;;;;;;;19.87;15.93;;;7.70;99.90;;;;;;5028396;28;20061;-61
2022/12/09 11:19:50;;;;;;;20.83;16.98;;;7.60;99.90;;;;;;5018406;28;20025;-61
2022/12/09 11:22:32;;;;;;;23.97;17.63;;;7.60;99.90;;;;;;5020483;28;20105;-61
2022/12/09 11:25:10;;;;;;;19.43;16.07;;;7.70;99.90;;;;;;5034352;28;20447;-61
2022/12/09 11:27:40;;;;;;;23.10;17.57;;;7.70;99.90;;;;;;5034339;28;20095;-61
2022/12/09 11:30:16;;;;;;;17.73;14.83;;;7.80;99.90;;;;;;5034410;28;20052;-61
2022/12/09 11:32:53;;;;;;;19.00;15.53;;;7.80;99.90;;;;;;5014233;28;20036;-61
2022/12/09 11:42:18;;;;;;;17.00;14.00;;;7.80;99.90;;;;;;5025956;28;20075;-61
2022/12/09 11:44:57;;;;;;;16.90;14.23;;;7.80;99.90;;;;;;5034175;28;20021;-61
2022/12/09 11:47:30;;;;;;;17.80;15.27;;;7.80;99.90;;;;;;5021013;28;20022;-61
2022/12/09 11:50:18;;;;;;;20.03;16.70;;;7.90;99.90;;;;;;5033878;28;20028;-60
2022/12/09 11:52:45;;;;;;;17.30;14.13;;;8.00;99.90;;;;;;5033009;28;20107;-59
2022/12/09 11:55:24;;;;;;;18.30;13.87;;;7.60;99.90;;;;;;5034039;28;20033;-62
2022/12/09 11:58:01;;;;;;;14.90;13.30;;;7.60;99.90;;;;;;5034246;28;20414;-62
2022/12/09 12:00:36;;;;;;;16.37;14.43;;;7.50;99.90;;;;;;5033854;28;20030;-62
2022/12/09 12:03:09;;;;;;;15.37;12.87;;;7.70;99.90;;;;;;5030132;28;20025;-62
2022/12/09 12:05:41;;;;;;;14.70;13.10;;;7.70;99.90;;;;;;5033558;28;20167;-62
2022/12/09 12:08:13;;;;;;;19.83;13.90;;;7.80;99.90;;;;;;5033441;28;20053;-62
2022/12/09 12:10:46;;;;;;;19.33;13.57;;;7.30;99.90;;;;;;5026747;28;20375;-62
2022/12/09 12:13:33;;;;;;;15.33;13.03;;;7.70;99.90;;;;;;5027514;28;20033;-62
2022/12/09 12:16:15;;;;;;;16.00;13.87;;;7.80;99.90;;;;;;5005402;28;20038;-62
2022/12/09 12:18:48;;;;;;;18.77;14.40;;;7.80;99.90;;;;;;5030482;28;20026;-62
2022/12/09 12:21:18;;;;;;;18.90;15.13;;;7.80;99.90;;;;;;5033266;28;20036;-62
2022/12/09 12:24:08;;;;;;;24.80;18.30;;;7.90;99.90;;;;;;5033109;28;20121;-62
2022/12/09 12:26:43;;;;;;;16.70;14.10;;;7.90;99.90;;;;;;5031996;28;20047;-62
2022/12/09 12:29:15;;;;;;;19.87;14.13;;;7.80;99.90;;;;;;5033088;28;20075;-62
2022/12/09 12:31:57;;;;;;;23.33;17.77;;;7.90;99.90;;;;;;5031574;28;20044;-63
2022/12/09 12:34:32;;;;;;;15.70;13.27;;;7.80;99.90;;;;;;5033049;28;20041;-62
2022/12/09 12:37:17;;;;;;;15.23;12.60;;;7.70;99.90;;;;;;5033306;28;20101;-63
2022/12/09 12:39:51;;;;;;;17.58;13.77;;;7.70;99.90;;;;;;5009960;28;20048;-62
2022/12/09 12:46:15;;;;;;;17.00;13.52;;;7.90;99.90;;;;;;5033054;28;20464;-63
2022/12/09 12:48:37;;;;;;;15.50;13.10;;;7.90;99.90;;;;;;5010183;28;20036;-62
2022/12/09 12:51:11;;;;;;;17.27;12.17;;;7.90;99.90;;;;;;5031323;28;20095;-62
2022/12/09 12:53:43;;;;;;;20.58;14.77;;;7.90;99.90;;;;;;5032359;28;20057;-62
2022/12/09 12:56:22;;;;;;;13.70;12.07;;;7.60;99.90;;;;;;5017812;28;20105;-63
2022/12/09 12:58:54;;;;;;;17.13;11.83;;;7.80;99.90;;;;;;5031330;28;20399;-62
2022/12/09 13:01:30;;;;;;;15.30;11.67;;;7.90;99.90;;;;;;5032429;28;20462;-62
2022/12/09 13:04:19;;;;;;;14.87;12.27;;;8.10;87.50;;;;;;5032230;28;20036;-62
2022/12/09 13:07:04;;;;;;;13.87;11.77;;;8.10;41.90;;;;;;5013617;28;20035;-62
2022/12/09 13:09:56;;;;;;;15.15;12.43;;;8.10;27.20;;;;;;5017267;28;20593;-63
2022/12/09 13:15:15;;;;;;;17.97;13.67;;;8.00;13.80;;;;;;5011375;28;20057;-63